sensor_id;sensor_type;location;lat;lon;timestamp;pressure;altitude;pressure_sealevel;temperature
71807;BMP280;59655;42.590;23.364;2022-07-05T00:02:20;91835.81;;;21.69
71807;BMP280;59655;42.590;23.364;2022-07-05T00:04:45;91829.53;;;21.65
71807;BMP280;59655;42.590;23.364;2022-07-05T00:07:11;91821.06;;;21.57
71807;BMP280;59655;42.590;23.364;2022-07-05T00:09:47;91830.84;;;21.50
71807;BMP280;59655;42.590;23.364;2022-07-05T00:12:13;91822.06;;;21.49
71807;BMP280;59655;42.590;23.364;2022-07-05T00:14:40;91827.34;;;21.47
71807;BMP280;59655;42.590;23.364;2022-07-05T00:17:06;91825.84;;;21.31
71807;BMP280;59655;42.590;23.364;2022-07-05T00:19:31;91825.66;;;21.26
71807;BMP280;59655;42.590;23.364;2022-07-05T00:21:57;91812.84;;;21.27
71807;BMP280;59655;42.590;23.364;2022-07-05T00:24:23;91810.44;;;21.19
71807;BMP280;59655;42.590;23.364;2022-07-05T00:26:48;91807.94;;;21.10
71807;BMP280;59655;42.590;23.364;2022-07-05T00:29:14;91797.56;;;21.04
71807;BMP280;59655;42.590;23.364;2022-07-05T00:31:39;91801.06;;;21.07
71807;BMP280;59655;42.590;23.364;2022-07-05T00:34:04;91794.34;;;20.94
71807;BMP280;59655;42.590;23.364;2022-07-05T00:36:30;91795.19;;;20.96
71807;BMP280;59655;42.590;23.364;2022-07-05T00:38:55;91786.06;;;20.90
71807;BMP280;59655;42.590;23.364;2022-07-05T00:41:21;91783.75;;;20.98
71807;BMP280;59655;42.590;23.364;2022-07-05T00:43:58;91787.56;;;20.93
71807;BMP280;59655;42.590;23.364;2022-07-05T00:46:25;91789.78;;;20.96
71807;BMP280;59655;42.590;23.364;2022-07-05T00:48:50;91791.56;;;20.92
71807;BMP280;59655;42.590;23.364;2022-07-05T00:51:16;91790.38;;;20.95
71807;BMP280;59655;42.590;23.364;2022-07-05T00:53:42;91792.34;;;20.94
71807;BMP280;59655;42.590;23.364;2022-07-05T00:56:11;91776.88;;;20.81
71807;BMP280;59655;42.590;23.364;2022-07-05T00:58:37;91781.25;;;20.88
71807;BMP280;59655;42.590;23.364;2022-07-05T01:01:05;91779.88;;;20.87
71807;BMP280;59655;42.590;23.364;2022-07-05T01:03:32;91780.66;;;20.90
71807;BMP280;59655;42.590;23.364;2022-07-05T01:05:58;91782.28;;;20.81
71807;BMP280;59655;42.590;23.364;2022-07-05T01:08:24;91771.38;;;20.79
71807;BMP280;59655;42.590;23.364;2022-07-05T01:10:50;91774.50;;;20.87
71807;BMP280;59655;42.590;23.364;2022-07-05T01:13:17;91771.59;;;20.83
71807;BMP280;59655;42.590;23.364;2022-07-05T01:15:43;91774.66;;;20.77
71807;BMP280;59655;42.590;23.364;2022-07-05T01:18:08;91774.66;;;20.77
71807;BMP280;59655;42.590;23.364;2022-07-05T01:20:35;91776.75;;;20.79
71807;BMP280;59655;42.590;23.364;2022-07-05T01:23:01;91779.88;;;20.73
71807;BMP280;59655;42.590;23.364;2022-07-05T01:25:30;91783.84;;;20.72
71807;BMP280;59655;42.590;23.364;2022-07-05T01:27:57;91789.22;;;20.72
71807;BMP280;59655;42.590;23.364;2022-07-05T01:30:23;91798.66;;;20.85
71807;BMP280;59655;42.590;23.364;2022-07-05T01:32:49;91803.44;;;20.87
71807;BMP280;59655;42.590;23.364;2022-07-05T01:35:16;91800.97;;;20.91
71807;BMP280;59655;42.590;23.364;2022-07-05T01:37:49;91806.75;;;20.99
71807;BMP280;59655;42.590;23.364;2022-07-05T01:40:15;91802.97;;;21.04
71807;BMP280;59655;42.590;23.364;2022-07-05T01:42:41;91800.16;;;21.02
71807;BMP280;59655;42.590;23.364;2022-07-05T01:45:07;91804.16;;;21.01
71807;BMP280;59655;42.590;23.364;2022-07-05T01:47:35;91803.28;;;20.96
71807;BMP280;59655;42.590;23.364;2022-07-05T01:50:02;91795.28;;;20.98
71807;BMP280;59655;42.590;23.364;2022-07-05T01:52:29;91794.25;;;20.92
71807;BMP280;59655;42.590;23.364;2022-07-05T01:54:55;91793.47;;;20.75
71807;BMP280;59655;42.590;23.364;2022-07-05T01:57:20;91795.81;;;20.69
71807;BMP280;59655;42.590;23.364;2022-07-05T01:59:46;91796.84;;;20.76
71807;BMP280;59655;42.590;23.364;2022-07-05T02:02:11;91794.81;;;20.63
71807;BMP280;59655;42.590;23.364;2022-07-05T02:04:37;91782.34;;;20.69
71807;BMP280;59655;42.590;23.364;2022-07-05T02:07:06;91784.34;;;20.69
71807;BMP280;59655;42.590;23.364;2022-07-05T02:09:32;91783.81;;;20.59
71807;BMP280;59655;42.590;23.364;2022-07-05T02:11:57;91783.59;;;20.54
71807;BMP280;59655;42.590;23.364;2022-07-05T02:14:23;91779.63;;;20.55
71807;BMP280;59655;42.590;23.364;2022-07-05T02:16:48;91777.69;;;20.44
71807;BMP280;59655;42.590;23.364;2022-07-05T02:19:14;91775.38;;;20.39
71807;BMP280;59655;42.590;23.364;2022-07-05T02:21:39;91771.41;;;20.40
71807;BMP280;59655;42.590;23.364;2022-07-05T02:24:06;91774.19;;;20.42
71807;BMP280;59655;42.590;23.364;2022-07-05T02:26:31;91779.41;;;20.51
71807;BMP280;59655;42.590;23.364;2022-07-05T02:28:57;91773.50;;;20.41
71807;BMP280;59655;42.590;23.364;2022-07-05T02:31:22;91777.09;;;20.46
71807;BMP280;59655;42.590;23.364;2022-07-05T02:33:47;91781.38;;;20.37
71807;BMP280;59655;42.590;23.364;2022-07-05T02:36:13;91779.78;;;20.32
71807;BMP280;59655;42.590;23.364;2022-07-05T02:38:39;91783.41;;;20.25
71807;BMP280;59655;42.590;23.364;2022-07-05T02:41:06;91787.03;;;20.29
71807;BMP280;59655;42.590;23.364;2022-07-05T02:43:33;91792.63;;;20.34
71807;BMP280;59655;42.590;23.364;2022-07-05T02:45:59;91796.19;;;20.24
71807;BMP280;59655;42.590;23.364;2022-07-05T02:48:24;91799.50;;;20.23
71807;BMP280;59655;42.590;23.364;2022-07-05T02:50:49;91803.22;;;20.29
71807;BMP280;59655;42.590;23.364;2022-07-05T02:53:15;91806.03;;;20.32
71807;BMP280;59655;42.590;23.364;2022-07-05T02:55:41;91801.72;;;20.26
71807;BMP280;59655;42.590;23.364;2022-07-05T02:58:06;91806.72;;;20.32
71807;BMP280;59655;42.590;23.364;2022-07-05T03:00:32;91814.13;;;20.32
71807;BMP280;59655;42.590;23.364;2022-07-05T03:02:57;91821.09;;;20.37
71807;BMP280;59655;42.590;23.364;2022-07-05T03:05:23;91818.81;;;20.31
71807;BMP280;59655;42.590;23.364;2022-07-05T03:07:48;91811.09;;;20.25
71807;BMP280;59655;42.590;23.364;2022-07-05T03:10:13;91812.13;;;20.32
71807;BMP280;59655;42.590;23.364;2022-07-05T03:12:40;91808.25;;;20.35
71807;BMP280;59655;42.590;23.364;2022-07-05T03:15:06;91818.09;;;20.30
71807;BMP280;59655;42.590;23.364;2022-07-05T03:17:31;91813.91;;;20.27
71807;BMP280;59655;42.590;23.364;2022-07-05T03:19:57;91811.56;;;20.22
71807;BMP280;59655;42.590;23.364;2022-07-05T03:22:22;91806.72;;;20.32
71807;BMP280;59655;42.590;23.364;2022-07-05T03:24:48;91800.84;;;20.36
71807;BMP280;59655;42.590;23.364;2022-07-05T03:27:13;91807.41;;;20.33
71807;BMP280;59655;42.590;23.364;2022-07-05T03:29:38;91801.00;;;20.26
71807;BMP280;59655;42.590;23.364;2022-07-05T03:32:04;91807.38;;;20.19
71807;BMP280;59655;42.590;23.364;2022-07-05T03:34:29;91799.09;;;20.03
71807;BMP280;59655;42.590;23.364;2022-07-05T03:36:55;91806.00;;;20.06
71807;BMP280;59655;42.590;23.364;2022-07-05T03:39:20;91804.47;;;20.15
71807;BMP280;59655;42.590;23.364;2022-07-05T03:41:46;91801.00;;;20.26
71807;BMP280;59655;42.590;23.364;2022-07-05T03:44:11;91800.72;;;20.34
71807;BMP280;59655;42.590;23.364;2022-07-05T03:46:36;91798.53;;;20.30
71807;BMP280;59655;42.590;23.364;2022-07-05T03:49:02;91797.00;;;20.27
71807;BMP280;59655;42.590;23.364;2022-07-05T03:51:27;91792.22;;;20.25
71807;BMP280;59655;42.590;23.364;2022-07-05T03:53:52;91798.53;;;20.30
71807;BMP280;59655;42.590;23.364;2022-07-05T03:56:18;91792.56;;;20.32
71807;BMP280;59655;42.590;23.364;2022-07-05T03:58:49;91796.94;;;20.39
71807;BMP280;59655;42.590;23.364;2022-07-05T04:01:15;91794.25;;;20.39
71807;BMP280;59655;42.590;23.364;2022-07-05T04:03:41;91794.38;;;20.41
71807;BMP280;59655;42.590;23.364;2022-07-05T04:06:08;91795.09;;;20.41
71807;BMP280;59655;42.590;23.364;2022-07-05T04:08:34;91788.16;;;20.38
71807;BMP280;59655;42.590;23.364;2022-07-05T04:10:59;91791.53;;;20.39
71807;BMP280;59655;42.590;23.364;2022-07-05T04:13:25;91784.75;;;20.38
71807;BMP280;59655;42.590;23.364;2022-07-05T04:15:50;91786.50;;;20.45
71807;BMP280;59655;42.590;23.364;2022-07-05T04:18:16;91778.28;;;20.43
71807;BMP280;59655;42.590;23.364;2022-07-05T04:20:41;91779.56;;;20.42
71807;BMP280;59655;42.590;23.364;2022-07-05T04:23:07;91787.09;;;20.43
71807;BMP280;59655;42.590;23.364;2022-07-05T04:25:32;91785.47;;;20.38
71807;BMP280;59655;42.590;23.364;2022-07-05T04:27:57;91789.19;;;20.45
71807;BMP280;59655;42.590;23.364;2022-07-05T04:30:24;91788.91;;;20.52
71807;BMP280;59655;42.590;23.364;2022-07-05T04:32:50;91788.41;;;20.56
71807;BMP280;59655;42.590;23.364;2022-07-05T04:35:16;91785.00;;;20.55
71807;BMP280;59655;42.590;23.364;2022-07-05T04:37:42;91783.44;;;20.64
71807;BMP280;59655;42.590;23.364;2022-07-05T04:40:10;91786.53;;;20.72
71807;BMP280;59655;42.590;23.364;2022-07-05T04:42:36;91791.34;;;20.74
71807;BMP280;59655;42.590;23.364;2022-07-05T04:45:01;91784.16;;;20.78
71807;BMP280;59655;42.590;23.364;2022-07-05T04:47:27;91791.25;;;20.86
71807;BMP280;59655;42.590;23.364;2022-07-05T04:49:55;91793.25;;;20.85
71807;BMP280;59655;42.590;23.364;2022-07-05T04:52:22;91788.19;;;20.91
71807;BMP280;59655;42.590;23.364;2022-07-05T04:54:47;91785.38;;;20.89
71807;BMP280;59655;42.590;23.364;2022-07-05T04:57:12;91793.66;;;20.93
71807;BMP280;59655;42.590;23.364;2022-07-05T04:59:38;91788.38;;;20.95
71807;BMP280;59655;42.590;23.364;2022-07-05T05:02:04;91791.06;;;20.95
71807;BMP280;59655;42.590;23.364;2022-07-05T05:04:29;91799.16;;;20.95
71807;BMP280;59655;42.590;23.364;2022-07-05T05:06:54;91801.66;;;21.05
71807;BMP280;59655;42.590;23.364;2022-07-05T05:09:20;91793.34;;;21.01
71807;BMP280;59655;42.590;23.364;2022-07-05T05:11:46;91802.97;;;21.04
71807;BMP280;59655;42.590;23.364;2022-07-05T05:14:11;91802.53;;;21.10
71807;BMP280;59655;42.590;23.364;2022-07-05T05:16:37;91802.53;;;21.10
71807;BMP280;59655;42.590;23.364;2022-07-05T05:19:02;91811.47;;;21.12
71807;BMP280;59655;42.590;23.364;2022-07-05T05:21:28;91804.28;;;21.17
71807;BMP280;59655;42.590;23.364;2022-07-05T05:23:53;91809.88;;;21.21
71807;BMP280;59655;42.590;23.364;2022-07-05T05:26:18;91811.88;;;21.20
71807;BMP280;59655;42.590;23.364;2022-07-05T05:28:44;91805.88;;;21.22
71807;BMP280;59655;42.590;23.364;2022-07-05T05:31:09;91803.97;;;21.24
71807;BMP280;59655;42.590;23.364;2022-07-05T05:33:35;91804.75;;;21.27
71807;BMP280;59655;42.590;23.364;2022-07-05T05:36:00;91800.38;;;21.34
71807;BMP280;59655;42.590;23.364;2022-07-05T05:38:26;91802.47;;;21.35
71807;BMP280;59655;42.590;23.364;2022-07-05T05:40:51;91803.94;;;21.38
71807;BMP280;59655;42.590;23.364;2022-07-05T05:43:17;91799.38;;;21.41
71807;BMP280;59655;42.590;23.364;2022-07-05T05:45:42;91800.97;;;21.46
71807;BMP280;59655;42.590;23.364;2022-07-05T05:48:08;91802.53;;;21.51
71807;BMP280;59655;42.590;23.364;2022-07-05T05:50:35;91810.25;;;21.57
71807;BMP280;59655;42.590;23.364;2022-07-05T05:53:01;91814.63;;;21.64
71807;BMP280;59655;42.590;23.364;2022-07-05T05:55:28;91815.44;;;21.66
71807;BMP280;59655;42.590;23.364;2022-07-05T05:57:54;91810.31;;;21.72
71807;BMP280;59655;42.590;23.364;2022-07-05T06:00:21;91811.19;;;21.77
71807;BMP280;59655;42.590;23.364;2022-07-05T06:02:48;91809.22;;;21.78
71807;BMP280;59655;42.590;23.364;2022-07-05T06:05:15;91814.09;;;21.81
71807;BMP280;59655;42.590;23.364;2022-07-05T06:07:53;91817.78;;;21.88
71807;BMP280;59655;42.590;23.364;2022-07-05T06:10:22;91812.47;;;21.90
71807;BMP280;59655;42.590;23.364;2022-07-05T06:12:48;91815.94;;;21.92
71807;BMP280;59655;42.590;23.364;2022-07-05T06:15:15;91816.75;;;21.95
71807;BMP280;59655;42.590;23.364;2022-07-05T06:17:41;91815.53;;;21.98
71807;BMP280;59655;42.590;23.364;2022-07-05T06:20:11;91817.72;;;22.02
71807;BMP280;59655;42.590;23.364;2022-07-05T06:22:38;91811.72;;;22.03
71807;BMP280;59655;42.590;23.364;2022-07-05T06:25:04;91818.66;;;22.06
71807;BMP280;59655;42.590;23.364;2022-07-05T06:27:29;91820.81;;;22.10
71807;BMP280;59655;42.590;23.364;2022-07-05T06:29:55;91817.59;;;22.13
71807;BMP280;59655;42.590;23.364;2022-07-05T06:32:21;91819.00;;;22.14
71807;BMP280;59655;42.590;23.364;2022-07-05T06:34:47;91828.59;;;22.17
71807;BMP280;59655;42.590;23.364;2022-07-05T06:37:12;91828.59;;;22.17
71807;BMP280;59655;42.590;23.364;2022-07-05T06:39:37;91826.00;;;22.19
71807;BMP280;59655;42.590;23.364;2022-07-05T06:42:03;91821.91;;;22.18
71807;BMP280;59655;42.590;23.364;2022-07-05T06:44:28;91827.47;;;22.22
71807;BMP280;59655;42.590;23.364;2022-07-05T06:46:54;91822.16;;;22.24
71807;BMP280;59655;42.590;23.364;2022-07-05T06:49:19;91826.34;;;22.28
71807;BMP280;59655;42.590;23.364;2022-07-05T06:51:44;91822.94;;;22.27
71807;BMP280;59655;42.590;23.364;2022-07-05T06:54:10;91827.91;;;22.33
71807;BMP280;59655;42.590;23.364;2022-07-05T06:56:35;91830.13;;;22.36
71807;BMP280;59655;42.590;23.364;2022-07-05T06:59:01;91823.41;;;22.37
71807;BMP280;59655;42.590;23.364;2022-07-05T07:01:26;91818.78;;;22.40
71807;BMP280;59655;42.590;23.364;2022-07-05T07:03:51;91814.06;;;22.40
71807;BMP280;59655;42.590;23.364;2022-07-05T07:06:17;91815.56;;;22.43
71807;BMP280;59655;42.590;23.364;2022-07-05T07:08:43;91818.97;;;22.44
71807;BMP280;59655;42.590;23.364;2022-07-05T07:11:27;91818.44;;;22.47
71807;BMP280;59655;42.590;23.364;2022-07-05T07:13:53;91819.13;;;22.48
71807;BMP280;59655;42.590;23.364;2022-07-05T07:16:18;91822.13;;;22.54
71807;BMP280;59655;42.590;23.364;2022-07-05T07:18:43;91820.09;;;22.55
71807;BMP280;59655;42.590;23.364;2022-07-05T07:21:09;91824.94;;;22.56
71807;BMP280;59655;42.590;23.364;2022-07-05T07:23:34;91824.41;;;22.60
71807;BMP280;59655;42.590;23.364;2022-07-05T07:26:01;91815.66;;;22.61
71807;BMP280;59655;42.590;23.364;2022-07-05T07:28:26;91818.56;;;22.65
71807;BMP280;59655;42.590;23.364;2022-07-05T07:30:52;91826.16;;;22.69
71807;BMP280;59655;42.590;23.364;2022-07-05T07:33:17;91837.78;;;22.71
71807;BMP280;59655;42.590;23.364;2022-07-05T07:35:42;91837.84;;;22.73
71807;BMP280;59655;42.590;23.364;2022-07-05T07:38:08;91828.41;;;22.75
71807;BMP280;59655;42.590;23.364;2022-07-05T07:40:33;91831.91;;;22.77
71807;BMP280;59655;42.590;23.364;2022-07-05T07:42:58;91828.59;;;22.79
71807;BMP280;59655;42.590;23.364;2022-07-05T07:45:24;91825.19;;;22.78
71807;BMP280;59655;42.590;23.364;2022-07-05T07:47:52;91818.03;;;22.85
71807;BMP280;59655;42.590;23.364;2022-07-05T07:50:17;91829.66;;;22.87
71807;BMP280;59655;42.590;23.364;2022-07-05T07:52:42;91826.25;;;22.87
71807;BMP280;59655;42.590;23.364;2022-07-05T07:55:08;91835.81;;;22.90
71807;BMP280;59655;42.590;23.364;2022-07-05T07:57:33;91830.50;;;22.92
71807;BMP280;59655;42.590;23.364;2022-07-05T07:59:59;91834.72;;;22.95
71807;BMP280;59655;42.590;23.364;2022-07-05T08:02:24;91833.47;;;22.98
71807;BMP280;59655;42.590;23.364;2022-07-05T08:04:50;91837.59;;;22.99
71807;BMP280;59655;42.590;23.364;2022-07-05T08:07:16;91845.19;;;23.03
71807;BMP280;59655;42.590;23.364;2022-07-05T08:09:43;91833.84;;;23.06
71807;BMP280;59655;42.590;23.364;2022-07-05T08:12:08;91829.19;;;23.09
71807;BMP280;59655;42.590;23.364;2022-07-05T08:14:34;91842.13;;;23.10
71807;BMP280;59655;42.590;23.364;2022-07-05T08:16:59;91832.06;;;23.13
71807;BMP280;59655;42.590;23.364;2022-07-05T08:19:24;91837.66;;;23.17
71807;BMP280;59655;42.590;23.364;2022-07-05T08:22:25;91835.00;;;23.19
71807;BMP280;59655;42.590;23.364;2022-07-05T08:24:51;91837.13;;;23.20
71807;BMP280;59655;42.590;23.364;2022-07-05T08:27:17;91828.41;;;23.22
71807;BMP280;59655;42.590;23.364;2022-07-05T08:29:42;91838.59;;;23.24
71807;BMP280;59655;42.590;23.364;2022-07-05T08:32:09;91830.56;;;23.26
71807;BMP280;59655;42.590;23.364;2022-07-05T08:34:34;91827.94;;;23.28
71807;BMP280;59655;42.590;23.364;2022-07-05T08:37:00;91829.41;;;23.31
71807;BMP280;59655;42.590;23.364;2022-07-05T08:39:26;91827.41;;;23.31
71807;BMP280;59655;42.590;23.364;2022-07-05T08:41:51;91827.41;;;23.31
71807;BMP280;59655;42.590;23.364;2022-07-05T08:44:18;91828.19;;;23.34
71807;BMP280;59655;42.590;23.364;2022-07-05T08:46:45;91826.97;;;23.37
71807;BMP280;59655;42.590;23.364;2022-07-05T08:49:13;91826.41;;;23.40
71807;BMP280;59655;42.590;23.364;2022-07-05T08:51:41;91822.47;;;23.43
71807;BMP280;59655;42.590;23.364;2022-07-05T08:54:11;91820.63;;;23.48
71807;BMP280;59655;42.590;23.364;2022-07-05T08:56:37;91822.03;;;23.49
71807;BMP280;59655;42.590;23.364;2022-07-05T08:59:03;91820.81;;;23.52
71807;BMP280;59655;42.590;23.364;2022-07-05T09:01:29;91821.75;;;23.59
71807;BMP280;59655;42.590;23.364;2022-07-05T09:04:01;91814.38;;;23.61
71807;BMP280;59655;42.590;23.364;2022-07-05T09:06:27;91811.81;;;23.65
71807;BMP280;59655;42.590;23.364;2022-07-05T09:08:55;91815.41;;;23.70
71807;BMP280;59655;42.590;23.364;2022-07-05T09:11:24;91818.88;;;23.73
71807;BMP280;59655;42.590;23.364;2022-07-05T09:13:51;91806.91;;;23.78
71807;BMP280;59655;42.590;23.364;2022-07-05T09:16:16;91810.47;;;23.82
71807;BMP280;59655;42.590;23.364;2022-07-05T09:18:51;91797.13;;;23.88
71807;BMP280;59655;42.590;23.364;2022-07-05T09:21:24;91803.44;;;23.93
71807;BMP280;59655;42.590;23.364;2022-07-05T09:26:20;91794.88;;;24.01
71807;BMP280;59655;42.590;23.364;2022-07-05T09:28:56;91789.47;;;24.01
71807;BMP280;59655;42.590;23.364;2022-07-05T09:31:36;91787.00;;;24.07
71807;BMP280;59655;42.590;23.364;2022-07-05T09:34:07;91790.47;;;24.09
71807;BMP280;59655;42.590;23.364;2022-07-05T09:36:54;91789.31;;;24.14
71807;BMP280;59655;42.590;23.364;2022-07-05T09:42:20;91789.72;;;24.27
71807;BMP280;59655;42.590;23.364;2022-07-05T09:44:53;91787.03;;;24.27
71807;BMP280;59655;42.590;23.364;2022-07-05T09:47:28;91787.81;;;24.29
71807;BMP280;59655;42.590;23.364;2022-07-05T09:49:56;91776.97;;;24.29
71807;BMP280;59655;42.590;23.364;2022-07-05T09:55:15;91782.91;;;24.43
71807;BMP280;59655;42.590;23.364;2022-07-05T09:57:42;91781.09;;;24.50
71807;BMP280;59655;42.590;23.364;2022-07-05T10:00:13;91783.97;;;24.54
71807;BMP280;59655;42.590;23.364;2022-07-05T10:02:53;91783.97;;;24.54
71807;BMP280;59655;42.590;23.364;2022-07-05T10:05:23;91775.34;;;24.60
71807;BMP280;59655;42.590;23.364;2022-07-05T10:07:50;91767.94;;;24.62
71807;BMP280;59655;42.590;23.364;2022-07-05T10:10:21;91776.88;;;24.65
71807;BMP280;59655;42.590;23.364;2022-07-05T10:12:48;91769.50;;;24.67
71807;BMP280;59655;42.590;23.364;2022-07-05T10:15:25;91764.97;;;24.74
71807;BMP280;59655;42.590;23.364;2022-07-05T10:18:11;91758.91;;;24.76
71807;BMP280;59655;42.590;23.364;2022-07-05T10:23:07;91758.00;;;24.89
71807;BMP280;59655;42.590;23.364;2022-07-05T10:25:35;91755.56;;;24.97
71807;BMP280;59655;42.590;23.364;2022-07-05T10:28:02;91753.09;;;25.05
71807;BMP280;59655;42.590;23.364;2022-07-05T10:45:47;91747.75;;;25.51
71807;BMP280;59655;42.590;23.364;2022-07-05T10:48:13;91739.03;;;25.55
71807;BMP280;59655;42.590;23.364;2022-07-05T10:54:04;91745.94;;;25.58
71807;BMP280;59655;42.590;23.364;2022-07-05T10:56:29;91743.91;;;25.58
71807;BMP280;59655;42.590;23.364;2022-07-05T10:59:08;91742.78;;;25.65
71807;BMP280;59655;42.590;23.364;2022-07-05T11:01:37;91736.63;;;25.65
71807;BMP280;59655;42.590;23.364;2022-07-05T11:11:31;91741.81;;;25.79
71807;BMP280;59655;42.590;23.364;2022-07-05T11:13:59;91743.28;;;25.84
71807;BMP280;59655;42.590;23.364;2022-07-05T11:18:52;91727.84;;;25.90
71807;BMP280;59655;42.590;23.364;2022-07-05T11:21:22;91732.06;;;25.95
71807;BMP280;59655;42.590;23.364;2022-07-05T11:23:48;91735.63;;;26.00
71807;BMP280;59655;42.590;23.364;2022-07-05T11:26:17;91735.69;;;26.02
71807;BMP280;59655;42.590;23.364;2022-07-05T11:28:47;91733.75;;;26.07
71807;BMP280;59655;42.590;23.364;2022-07-05T11:31:41;91734.56;;;26.11
71807;BMP280;59655;42.590;23.364;2022-07-05T11:34:13;91730.63;;;26.16
71807;BMP280;59655;42.590;23.364;2022-07-05T11:36:39;91729.41;;;26.21
71807;BMP280;59655;42.590;23.364;2022-07-05T11:39:22;91728.78;;;26.23
71807;BMP280;59655;42.590;23.364;2022-07-05T11:41:48;91725.53;;;26.29
71807;BMP280;59655;42.590;23.364;2022-07-05T11:44:14;91720.78;;;26.29
71807;BMP280;59655;42.590;23.364;2022-07-05T11:46:43;91729.00;;;26.31
71807;BMP280;59655;42.590;23.364;2022-07-05T11:49:08;91723.03;;;26.37
71807;BMP280;59655;42.590;23.364;2022-07-05T11:51:34;91710.75;;;26.36
71807;BMP280;59655;42.590;23.364;2022-07-05T11:53:59;91712.16;;;26.37
71807;BMP280;59655;42.590;23.364;2022-07-05T11:56:26;91706.72;;;26.37
71807;BMP280;59655;42.590;23.364;2022-07-05T11:58:52;91702.63;;;26.38
71807;BMP280;59655;42.590;23.364;2022-07-05T12:01:17;91699.28;;;26.39
71807;BMP280;59655;42.590;23.364;2022-07-05T12:03:53;91695.91;;;26.41
71807;BMP280;59655;42.590;23.364;2022-07-05T12:06:19;91695.28;;;26.42
71807;BMP280;59655;42.590;23.364;2022-07-05T12:08:45;91689.28;;;26.48
71807;BMP280;59655;42.590;23.364;2022-07-05T12:11:11;91691.44;;;26.52
71807;BMP280;59655;42.590;23.364;2022-07-05T12:13:56;91685.41;;;26.57
71807;BMP280;59655;42.590;23.364;2022-07-05T12:16:21;91691.06;;;26.63
71807;BMP280;59655;42.590;23.364;2022-07-05T12:18:51;91684.97;;;26.67
71807;BMP280;59655;42.590;23.364;2022-07-05T12:21:17;91689.94;;;26.74
71807;BMP280;59655;42.590;23.364;2022-07-05T12:23:46;91686.66;;;26.80
71807;BMP280;59655;42.590;23.364;2022-07-05T12:26:12;91681.03;;;27.00
71807;BMP280;59655;42.590;23.364;2022-07-05T12:28:39;91684.78;;;27.15
71807;BMP280;59655;42.590;23.364;2022-07-05T12:31:15;91688.56;;;27.32
71807;BMP280;59655;42.590;23.364;2022-07-05T12:33:41;91678.03;;;27.48
71807;BMP280;59655;42.590;23.364;2022-07-05T12:36:11;91673.75;;;27.71
71807;BMP280;59655;42.590;23.364;2022-07-05T12:38:37;91677.88;;;28.06
71807;BMP280;59655;42.590;23.364;2022-07-05T12:41:02;91674.28;;;28.36
71807;BMP280;59655;42.590;23.364;2022-07-05T12:43:28;91670.16;;;28.71
71807;BMP280;59655;42.590;23.364;2022-07-05T12:46:07;91668.59;;;29.02
71807;BMP280;59655;42.590;23.364;2022-07-05T12:48:37;91669.31;;;29.53
71807;BMP280;59655;42.590;23.364;2022-07-05T12:51:04;91662.97;;;29.95
71807;BMP280;59655;42.590;23.364;2022-07-05T12:53:29;91655.84;;;30.30
71807;BMP280;59655;42.590;23.364;2022-07-05T12:56:14;91656.94;;;30.79
71807;BMP280;59655;42.590;23.364;2022-07-05T12:59:03;91658.41;;;30.90
71807;BMP280;59655;42.590;23.364;2022-07-05T13:01:30;91660.63;;;30.33
71807;BMP280;59655;42.590;23.364;2022-07-05T13:07:00;91651.06;;;29.72
71807;BMP280;59655;42.590;23.364;2022-07-05T13:12:17;91640.03;;;29.62
71807;BMP280;59655;42.590;23.364;2022-07-05T13:14:51;91637.59;;;29.33
71807;BMP280;59655;42.590;23.364;2022-07-05T13:17:18;91638.28;;;29.32
71807;BMP280;59655;42.590;23.364;2022-07-05T13:19:46;91648.94;;;29.14
71807;BMP280;59655;42.590;23.364;2022-07-05T13:22:12;91641.34;;;29.08
71807;BMP280;59655;42.590;23.364;2022-07-05T13:24:38;91643.19;;;28.95
71807;BMP280;59655;42.590;23.364;2022-07-05T13:27:05;91640.44;;;28.93
71807;BMP280;59655;42.590;23.364;2022-07-05T13:29:30;91641.69;;;29.32
71807;BMP280;59655;42.590;23.364;2022-07-05T13:31:56;91643.34;;;30.15
71807;BMP280;59655;42.590;23.364;2022-07-05T13:34:22;91636.25;;;30.64
71807;BMP280;59655;42.590;23.364;2022-07-05T13:36:52;91642.88;;;30.34
71807;BMP280;59655;42.590;23.364;2022-07-05T13:39:21;91636.22;;;29.89
71807;BMP280;59655;42.590;23.364;2022-07-05T13:41:48;91644.19;;;29.65
71807;BMP280;59655;42.590;23.364;2022-07-05T13:44:13;91644.63;;;29.47
71807;BMP280;59655;42.590;23.364;2022-07-05T13:46:39;91640.31;;;29.33
71807;BMP280;59655;42.590;23.364;2022-07-05T13:49:04;91636.69;;;29.17
71807;BMP280;59655;42.590;23.364;2022-07-05T13:51:29;91634.50;;;29.05
71807;BMP280;59655;42.590;23.364;2022-07-05T13:53:55;91632.66;;;29.24
71807;BMP280;59655;42.590;23.364;2022-07-05T13:56:20;91636.50;;;30.13
71807;BMP280;59655;42.590;23.364;2022-07-05T13:58:46;91626.69;;;30.67
71807;BMP280;59655;42.590;23.364;2022-07-05T14:01:12;91619.56;;;31.35
71807;BMP280;59655;42.590;23.364;2022-07-05T14:03:39;91619.06;;;31.79
71807;BMP280;59655;42.590;23.364;2022-07-05T14:06:04;91615.03;;;32.05
71807;BMP280;59655;42.590;23.364;2022-07-05T14:08:29;91608.88;;;32.28
71807;BMP280;59655;42.590;23.364;2022-07-05T14:10:56;91608.88;;;32.28
71807;BMP280;59655;42.590;23.364;2022-07-05T14:13:23;91601.31;;;32.41
71807;BMP280;59655;42.590;23.364;2022-07-05T14:15:49;91596.53;;;32.46
71807;BMP280;59655;42.590;23.364;2022-07-05T14:18:16;91596.50;;;32.36
71807;BMP280;59655;42.590;23.364;2022-07-05T14:20:43;91593.09;;;32.33
71807;BMP280;59655;42.590;23.364;2022-07-05T14:23:09;91592.41;;;32.41
71807;BMP280;59655;42.590;23.364;2022-07-05T14:25:35;91586.22;;;32.52
71807;BMP280;59655;42.590;23.364;2022-07-05T14:28:02;91584.81;;;32.29
71807;BMP280;59655;42.590;23.364;2022-07-05T14:30:35;91590.34;;;32.39
71807;BMP280;59655;42.590;23.364;2022-07-05T14:33:03;91588.25;;;32.11
71807;BMP280;59655;42.590;23.364;2022-07-05T14:35:30;91593.03;;;31.94
71807;BMP280;59655;42.590;23.364;2022-07-05T14:37:58;91583.47;;;32.16
71807;BMP280;59655;42.590;23.364;2022-07-05T14:40:24;91595.16;;;32.33
71807;BMP280;59655;42.590;23.364;2022-07-05T14:42:54;91587.59;;;32.37